sensor_id;sensor_type;location;lat;lon;timestamp;pressure;altitude;pressure_sealevel;temperature;humidity
72428;BME280;60419;48.880;18.036;2023-06-10T00:00:08;98676.66;;;15.70;87.36
72428;BME280;60419;48.880;18.036;2023-06-10T00:02:53;98676.94;;;14.84;92.13
72428;BME280;60419;48.880;18.036;2023-06-10T00:05:38;98675.84;;;15.13;91.04
72428;BME280;60419;48.880;18.036;2023-06-10T00:08:24;98680.50;;;15.12;91.06
72428;BME280;60419;48.880;18.036;2023-06-10T00:11:09;98665.81;;;15.57;89.04
72428;BME280;60419;48.880;18.036;2023-06-10T00:13:55;98681.91;;;16.06;87.01
72428;BME280;60419;48.880;18.036;2023-06-10T00:16:40;98685.97;;;16.28;85.03
72428;BME280;60419;48.880;18.036;2023-06-10T00:19:29;98684.56;;;16.19;84.94
72428;BME280;60419;48.880;18.036;2023-06-10T00:22:15;98688.44;;;15.74;88.19
72428;BME280;60419;48.880;18.036;2023-06-10T00:25:00;98686.78;;;16.29;84.95
72428;BME280;60419;48.880;18.036;2023-06-10T00:27:46;98689.44;;;16.77;82.97
72428;BME280;60419;48.880;18.036;2023-06-10T00:30:31;98688.16;;;17.06;81.50
72428;BME280;60419;48.880;18.036;2023-06-10T00:33:16;98688.31;;;17.13;80.75
72428;BME280;60419;48.880;18.036;2023-06-10T00:36:02;98683.97;;;17.28;79.65
72428;BME280;60419;48.880;18.036;2023-06-10T00:38:47;98685.88;;;17.27;78.90
72428;BME280;60419;48.880;18.036;2023-06-10T00:41:33;98677.84;;;17.34;78.45
72428;BME280;60419;48.880;18.036;2023-06-10T00:44:19;98682.34;;;17.07;79.14
72428;BME280;60419;48.880;18.036;2023-06-10T00:47:05;98681.03;;;15.58;85.93
72428;BME280;60419;48.880;18.036;2023-06-10T00:49:51;98687.59;;;14.89;90.53
72428;BME280;60419;48.880;18.036;2023-06-10T00:52:37;98689.38;;;15.94;86.65
72428;BME280;60419;48.880;18.036;2023-06-10T00:55:22;98681.91;;;15.34;88.37
72428;BME280;60419;48.880;18.036;2023-06-10T00:58:08;98668.47;;;15.82;85.45
72428;BME280;60419;48.880;18.036;2023-06-10T01:00:54;98693.78;;;16.30;83.66
72428;BME280;60419;48.880;18.036;2023-06-10T01:03:41;98695.59;;;15.50;87.13
72428;BME280;60419;48.880;18.036;2023-06-10T01:06:38;98690.84;;;15.91;85.47
72428;BME280;60419;48.880;18.036;2023-06-10T01:09:39;98691.00;;;15.54;87.83
72428;BME280;60419;48.880;18.036;2023-06-10T01:15:23;98694.41;;;16.23;84.10
72428;BME280;60419;48.880;18.036;2023-06-10T01:18:10;98700.03;;;16.46;83.22
72428;BME280;60419;48.880;18.036;2023-06-10T01:21:00;98697.91;;;16.56;82.39
72428;BME280;60419;48.880;18.036;2023-06-10T01:23:45;98695.28;;;16.27;82.67
72428;BME280;60419;48.880;18.036;2023-06-10T01:26:32;98681.59;;;15.24;86.87
72428;BME280;60419;48.880;18.036;2023-06-10T01:29:21;98691.38;;;15.81;85.56
72428;BME280;60419;48.880;18.036;2023-06-10T01:32:17;98693.19;;;16.05;84.83
72428;BME280;60419;48.880;18.036;2023-06-10T01:35:05;98679.00;;;16.15;82.64
72428;BME280;60419;48.880;18.036;2023-06-10T01:37:53;98698.97;;;15.75;84.67
72428;BME280;60419;48.880;18.036;2023-06-10T01:40:40;98694.63;;;15.30;86.76
72428;BME280;60419;48.880;18.036;2023-06-10T01:43:26;98694.22;;;15.72;85.25
72428;BME280;60419;48.880;18.036;2023-06-10T01:46:11;98704.00;;;14.68;91.38
72428;BME280;60419;48.880;18.036;2023-06-10T01:48:57;98705.59;;;15.34;87.97
72428;BME280;60419;48.880;18.036;2023-06-10T01:51:42;98710.56;;;15.72;85.84
72428;BME280;60419;48.880;18.036;2023-06-10T01:54:28;98703.09;;;15.69;85.46
72428;BME280;60419;48.880;18.036;2023-06-10T01:57:14;98701.13;;;15.13;87.63
72428;BME280;60419;48.880;18.036;2023-06-10T02:00:00;98696.63;;;14.31;93.38
72428;BME280;60419;48.880;18.036;2023-06-10T02:02:46;98707.50;;;14.44;92.37
72428;BME280;60419;48.880;18.036;2023-06-10T02:05:31;98706.69;;;15.17;89.31
72428;BME280;60419;48.880;18.036;2023-06-10T02:08:17;98709.41;;;15.05;88.57
72428;BME280;60419;48.880;18.036;2023-06-10T02:11:02;98718.91;;;15.23;88.50
72428;BME280;60419;48.880;18.036;2023-06-10T02:13:48;98713.53;;;14.99;90.19
72428;BME280;60419;48.880;18.036;2023-06-10T02:16:33;98716.88;;;15.20;88.49
72428;BME280;60419;48.880;18.036;2023-06-10T02:19:18;98716.25;;;14.86;89.94
72428;BME280;60419;48.880;18.036;2023-06-10T02:22:06;98705.72;;;15.37;88.12
72428;BME280;60419;48.880;18.036;2023-06-10T02:24:52;98705.81;;;15.81;85.80
72428;BME280;60419;48.880;18.036;2023-06-10T02:27:37;98707.31;;;15.95;84.67
72428;BME280;60419;48.880;18.036;2023-06-10T02:30:22;98693.78;;;15.98;83.75
72428;BME280;60419;48.880;18.036;2023-06-10T02:33:08;98703.41;;;15.39;86.00
72428;BME280;60419;48.880;18.036;2023-06-10T02:35:55;98696.09;;;15.28;86.94
72428;BME280;60419;48.880;18.036;2023-06-10T02:38:41;98704.41;;;15.19;88.86
72428;BME280;60419;48.880;18.036;2023-06-10T02:41:27;98692.44;;;14.59;90.84
72428;BME280;60419;48.880;18.036;2023-06-10T02:44:12;98707.25;;;15.10;89.21
72428;BME280;60419;48.880;18.036;2023-06-10T02:46:58;98698.75;;;15.12;88.75
72428;BME280;60419;48.880;18.036;2023-06-10T02:49:43;98707.84;;;15.72;86.13
72428;BME280;60419;48.880;18.036;2023-06-10T02:52:28;98709.72;;;15.28;87.07
72428;BME280;60419;48.880;18.036;2023-06-10T02:55:15;98713.53;;;14.86;90.28
72428;BME280;60419;48.880;18.036;2023-06-10T02:58:00;98704.34;;;15.31;87.84
72428;BME280;60419;48.880;18.036;2023-06-10T03:00:46;98706.63;;;15.29;86.95
72428;BME280;60419;48.880;18.036;2023-06-10T03:03:32;98703.47;;;15.27;87.05
72428;BME280;60419;48.880;18.036;2023-06-10T03:06:19;98716.16;;;15.35;87.91
72428;BME280;60419;48.880;18.036;2023-06-10T03:09:04;98711.34;;;16.01;84.87
72428;BME280;60419;48.880;18.036;2023-06-10T03:11:50;98713.19;;;15.97;83.96
72428;BME280;60419;48.880;18.036;2023-06-10T03:14:35;98708.19;;;15.99;83.38
72428;BME280;60419;48.880;18.036;2023-06-10T03:17:20;98712.84;;;16.14;82.14
72428;BME280;60419;48.880;18.036;2023-06-10T03:20:06;98713.28;;;14.91;88.19
72428;BME280;60419;48.880;18.036;2023-06-10T03:22:55;98704.28;;;15.28;87.41
72428;BME280;60419;48.880;18.036;2023-06-10T03:25:40;98706.28;;;15.71;84.50
72428;BME280;60419;48.880;18.036;2023-06-10T03:28:25;98718.53;;;15.65;84.97
72428;BME280;60419;48.880;18.036;2023-06-10T03:31:11;98720.72;;;13.75;94.91
72428;BME280;60419;48.880;18.036;2023-06-10T03:33:56;98713.81;;;14.11;94.41
72428;BME280;60419;48.880;18.036;2023-06-10T03:36:43;98715.00;;;14.01;94.25
72428;BME280;60419;48.880;18.036;2023-06-10T03:39:28;98710.25;;;13.65;96.13
72428;BME280;60419;48.880;18.036;2023-06-10T03:42:14;98709.63;;;13.47;98.58
72428;BME280;60419;48.880;18.036;2023-06-10T03:44:59;98702.41;;;14.42;94.31
72428;BME280;60419;48.880;18.036;2023-06-10T03:47:45;98715.00;;;14.71;92.13
72428;BME280;60419;48.880;18.036;2023-06-10T03:50:30;98708.41;;;14.36;92.12
72428;BME280;60419;48.880;18.036;2023-06-10T03:53:16;98702.00;;;13.61;96.93
72428;BME280;60419;48.880;18.036;2023-06-10T03:56:01;98710.06;;;14.03;95.28
72428;BME280;60419;48.880;18.036;2023-06-10T03:58:47;98706.28;;;13.96;95.25
72428;BME280;60419;48.880;18.036;2023-06-10T04:01:32;98704.88;;;14.35;93.71
72428;BME280;60419;48.880;18.036;2023-06-10T04:04:18;98704.22;;;14.87;89.93
72428;BME280;60419;48.880;18.036;2023-06-10T04:07:04;98709.09;;;14.57;91.50
72428;BME280;60419;48.880;18.036;2023-06-10T04:09:50;98701.50;;;15.00;88.83
72428;BME280;60419;48.880;18.036;2023-06-10T04:12:36;98706.50;;;13.91;93.36
72428;BME280;60419;48.880;18.036;2023-06-10T04:15:21;98705.28;;;13.55;97.65
72428;BME280;60419;48.880;18.036;2023-06-10T04:18:07;98695.38;;;13.71;96.30
72428;BME280;60419;48.880;18.036;2023-06-10T04:20:53;98701.44;;;13.56;97.82
72428;BME280;60419;48.880;18.036;2023-06-10T04:23:38;98710.06;;;13.28;99.12
72428;BME280;60419;48.880;18.036;2023-06-10T04:26:24;98692.66;;;13.50;97.68
72428;BME280;60419;48.880;18.036;2023-06-10T04:29:10;98704.53;;;13.66;97.31
72428;BME280;60419;48.880;18.036;2023-06-10T04:31:56;98709.00;;;13.83;96.75
72428;BME280;60419;48.880;18.036;2023-06-10T04:34:41;98700.88;;;13.62;97.16
72428;BME280;60419;48.880;18.036;2023-06-10T04:37:27;98706.03;;;13.76;97.75
72428;BME280;60419;48.880;18.036;2023-06-10T04:40:14;98699.06;;;14.00;95.35
72428;BME280;60419;48.880;18.036;2023-06-10T04:43:00;98697.56;;;13.90;96.64
72428;BME280;60419;48.880;18.036;2023-06-10T04:45:46;98699.13;;;14.12;96.31
72428;BME280;60419;48.880;18.036;2023-06-10T04:48:32;98685.88;;;14.96;91.36
72428;BME280;60419;48.880;18.036;2023-06-10T04:51:20;98694.16;;;14.39;92.08
72428;BME280;60419;48.880;18.036;2023-06-10T04:54:05;98685.34;;;13.96;93.41
72428;BME280;60419;48.880;18.036;2023-06-10T04:56:51;98699.91;;;14.37;93.79
72428;BME280;60419;48.880;18.036;2023-06-10T04:59:37;98702.88;;;15.34;89.61
72428;BME280;60419;48.880;18.036;2023-06-10T05:02:23;98706.16;;;14.74;90.66
72428;BME280;60419;48.880;18.036;2023-06-10T05:05:08;98714.53;;;14.94;89.94
72428;BME280;60419;48.880;18.036;2023-06-10T05:07:54;98714.41;;;14.29;93.10
72428;BME280;60419;48.880;18.036;2023-06-10T05:10:39;98707.28;;;14.49;91.56
72428;BME280;60419;48.880;18.036;2023-06-10T05:13:24;98714.50;;;14.32;93.53
72428;BME280;60419;48.880;18.036;2023-06-10T05:16:10;98725.41;;;14.45;93.45
72428;BME280;60419;48.880;18.036;2023-06-10T05:18:55;98712.03;;;14.40;92.96
72428;BME280;60419;48.880;18.036;2023-06-10T05:21:41;98723.22;;;14.26;93.17
72428;BME280;60419;48.880;18.036;2023-06-10T05:24:26;98715.19;;;14.66;91.93
72428;BME280;60419;48.880;18.036;2023-06-10T05:27:11;98718.38;;;14.44;92.63
72428;BME280;60419;48.880;18.036;2023-06-10T05:29:57;98715.47;;;15.26;88.73
72428;BME280;60419;48.880;18.036;2023-06-10T05:32:42;98724.03;;;15.00;89.10
72428;BME280;60419;48.880;18.036;2023-06-10T05:35:27;98717.03;;;14.99;90.39
72428;BME280;60419;48.880;18.036;2023-06-10T05:38:13;98716.81;;;14.67;91.64
72428;BME280;60419;48.880;18.036;2023-06-10T05:40:58;98720.22;;;14.89;91.40
72428;BME280;60419;48.880;18.036;2023-06-10T05:43:44;98718.28;;;15.42;89.00
72428;BME280;60419;48.880;18.036;2023-06-10T05:46:29;98717.94;;;15.72;86.94
72428;BME280;60419;48.880;18.036;2023-06-10T05:49:15;98717.09;;;16.27;84.39
72428;BME280;60419;48.880;18.036;2023-06-10T05:52:01;98715.38;;;15.91;85.28
72428;BME280;60419;48.880;18.036;2023-06-10T05:54:46;98718.53;;;15.65;87.06
72428;BME280;60419;48.880;18.036;2023-06-10T05:57:32;98717.31;;;15.22;89.30
72428;BME280;60419;48.880;18.036;2023-06-10T06:00:18;98710.81;;;15.39;89.36
72428;BME280;60419;48.880;18.036;2023-06-10T06:03:03;98707.81;;;15.16;89.43
72428;BME280;60419;48.880;18.036;2023-06-10T06:05:48;98705.16;;;15.60;88.68
72428;BME280;60419;48.880;18.036;2023-06-10T06:08:34;98710.97;;;15.58;89.22
72428;BME280;60419;48.880;18.036;2023-06-10T06:11:19;98712.75;;;15.67;88.46
72428;BME280;60419;48.880;18.036;2023-06-10T06:14:05;98709.66;;;15.96;87.89
72428;BME280;60419;48.880;18.036;2023-06-10T06:16:50;98708.50;;;15.53;88.35
72428;BME280;60419;48.880;18.036;2023-06-10T06:19:35;98707.75;;;15.40;89.70
72428;BME280;60419;48.880;18.036;2023-06-10T06:22:21;98712.13;;;15.86;86.68
72428;BME280;60419;48.880;18.036;2023-06-10T06:25:07;98705.50;;;15.87;87.23
72428;BME280;60419;48.880;18.036;2023-06-10T06:27:52;98708.78;;;15.64;88.24
72428;BME280;60419;48.880;18.036;2023-06-10T06:30:38;98724.63;;;16.02;86.80
72428;BME280;60419;48.880;18.036;2023-06-10T06:33:23;98721.50;;;16.48;84.65
72428;BME280;60419;48.880;18.036;2023-06-10T06:36:09;98719.13;;;17.13;82.35
72428;BME280;60419;48.880;18.036;2023-06-10T06:38:54;98727.50;;;17.05;82.54
72428;BME280;60419;48.880;18.036;2023-06-10T06:41:40;98727.53;;;17.24;81.95
72428;BME280;60419;48.880;18.036;2023-06-10T06:44:25;98725.34;;;17.14;82.32
72428;BME280;60419;48.880;18.036;2023-06-10T06:47:10;98735.03;;;16.92;84.07
72428;BME280;60419;48.880;18.036;2023-06-10T06:49:56;98723.47;;;17.73;81.20
72428;BME280;60419;48.880;18.036;2023-06-10T06:52:41;98723.88;;;17.55;80.30
72428;BME280;60419;48.880;18.036;2023-06-10T06:55:26;98712.72;;;18.49;77.04
72428;BME280;60419;48.880;18.036;2023-06-10T06:58:12;98728.06;;;20.01;75.61
72428;BME280;60419;48.880;18.036;2023-06-10T07:00:57;98719.88;;;20.97;69.96
72428;BME280;60419;48.880;18.036;2023-06-10T07:03:43;98725.84;;;19.46;73.43
72428;BME280;60419;48.880;18.036;2023-06-10T07:06:28;98714.03;;;20.06;72.46
72428;BME280;60419;48.880;18.036;2023-06-10T07:09:13;98721.47;;;19.68;71.92
72428;BME280;60419;48.880;18.036;2023-06-10T07:11:59;98729.44;;;19.81;72.08
72428;BME280;60419;48.880;18.036;2023-06-10T07:14:44;98725.50;;;19.48;74.91
72428;BME280;60419;48.880;18.036;2023-06-10T07:17:30;98730.38;;;17.86;78.32
72428;BME280;60419;48.880;18.036;2023-06-10T07:20:15;98735.38;;;18.50;77.78
72428;BME280;60419;48.880;18.036;2023-06-10T07:23:00;98733.06;;;19.54;75.16
72428;BME280;60419;48.880;18.036;2023-06-10T07:25:46;98723.84;;;20.48;70.53
72428;BME280;60419;48.880;18.036;2023-06-10T07:28:31;98725.34;;;20.42;69.92
72428;BME280;60419;48.880;18.036;2023-06-10T07:31:17;98721.06;;;20.45;68.86
72428;BME280;60419;48.880;18.036;2023-06-10T07:34:02;98723.03;;;19.39;73.25
72428;BME280;60419;48.880;18.036;2023-06-10T07:36:48;98728.19;;;18.87;73.93
72428;BME280;60419;48.880;18.036;2023-06-10T07:39:33;98730.25;;;19.21;73.55
72428;BME280;60419;48.880;18.036;2023-06-10T07:42:19;98726.94;;;19.08;73.33
72428;BME280;60419;48.880;18.036;2023-06-10T07:45:04;98712.69;;;18.45;74.68
72428;BME280;60419;48.880;18.036;2023-06-10T07:47:50;98717.63;;;19.13;72.80
72428;BME280;60419;48.880;18.036;2023-06-10T07:50:36;98716.69;;;19.31;74.16
72428;BME280;60419;48.880;18.036;2023-06-10T07:53:21;98718.09;;;19.18;71.98
72428;BME280;60419;48.880;18.036;2023-06-10T07:56:07;98721.81;;;20.01;71.37
72428;BME280;60419;48.880;18.036;2023-06-10T07:58:52;98717.38;;;20.30;69.33
72428;BME280;60419;48.880;18.036;2023-06-10T08:01:37;98715.91;;;19.61;71.59
72428;BME280;60419;48.880;18.036;2023-06-10T08:04:24;98716.91;;;19.19;71.92
72428;BME280;60419;48.880;18.036;2023-06-10T08:07:10;98713.41;;;18.92;73.36
72428;BME280;60419;48.880;18.036;2023-06-10T08:09:55;98712.66;;;20.27;68.86
72428;BME280;60419;48.880;18.036;2023-06-10T08:12:40;98711.47;;;18.93;72.37
72428;BME280;60419;48.880;18.036;2023-06-10T08:15:26;98718.94;;;18.96;73.22
72428;BME280;60419;48.880;18.036;2023-06-10T08:18:11;98711.75;;;18.61;73.97
72428;BME280;60419;48.880;18.036;2023-06-10T08:20:57;98710.06;;;19.02;72.17
72428;BME280;60419;48.880;18.036;2023-06-10T08:23:42;98719.38;;;19.58;70.61
72428;BME280;60419;48.880;18.036;2023-06-10T08:26:29;98708.69;;;19.49;71.39
72428;BME280;60419;48.880;18.036;2023-06-10T08:29:14;98718.81;;;19.75;70.63
72428;BME280;60419;48.880;18.036;2023-06-10T08:32:00;98720.41;;;18.89;72.57
72428;BME280;60419;48.880;18.036;2023-06-10T08:34:45;98720.25;;;19.36;71.27
72428;BME280;60419;48.880;18.036;2023-06-10T08:37:31;98720.94;;;18.99;73.25
72428;BME280;60419;48.880;18.036;2023-06-10T08:40:16;98717.75;;;19.23;72.87
72428;BME280;60419;48.880;18.036;2023-06-10T08:43:16;98705.78;;;19.05;72.33
72428;BME280;60419;48.880;18.036;2023-06-10T08:46:02;98732.78;;;19.37;72.33
72428;BME280;60419;48.880;18.036;2023-06-10T08:48:52;98723.75;;;20.00;70.59
72428;BME280;60419;48.880;18.036;2023-06-10T08:51:41;98713.13;;;19.95;70.00
72428;BME280;60419;48.880;18.036;2023-06-10T08:54:30;98725.13;;;20.61;67.96
72428;BME280;60419;48.880;18.036;2023-06-10T08:57:17;98723.06;;;20.10;70.76
72428;BME280;60419;48.880;18.036;2023-06-10T09:00:06;98717.13;;;20.42;69.51
72428;BME280;60419;48.880;18.036;2023-06-10T09:02:52;98712.84;;;19.70;70.79
72428;BME280;60419;48.880;18.036;2023-06-10T09:05:37;98705.84;;;19.72;70.33
72428;BME280;60419;48.880;18.036;2023-06-10T09:08:23;98708.78;;;19.90;70.92
72428;BME280;60419;48.880;18.036;2023-06-10T09:11:08;98706.22;;;20.08;69.04
72428;BME280;60419;48.880;18.036;2023-06-10T09:13:54;98716.56;;;20.70;68.29
72428;BME280;60419;48.880;18.036;2023-06-10T09:16:40;98710.28;;;19.84;70.06
72428;BME280;60419;48.880;18.036;2023-06-10T09:19:28;98711.50;;;19.87;70.20
72428;BME280;60419;48.880;18.036;2023-06-10T09:22:13;98709.44;;;19.80;69.89
72428;BME280;60419;48.880;18.036;2023-06-10T09:25:07;98712.41;;;20.42;68.09
72428;BME280;60419;48.880;18.036;2023-06-10T09:27:54;98703.91;;;20.58;66.85
72428;BME280;60419;48.880;18.036;2023-06-10T09:30:40;98706.78;;;20.28;70.15
72428;BME280;60419;48.880;18.036;2023-06-10T09:33:26;98704.53;;;19.96;70.34
72428;BME280;60419;48.880;18.036;2023-06-10T09:36:21;98704.91;;;21.64;65.34
72428;BME280;60419;48.880;18.036;2023-06-10T09:39:16;98688.84;;;21.77;63.13
72428;BME280;60419;48.880;18.036;2023-06-10T09:42:15;98710.66;;;20.68;66.21
72428;BME280;60419;48.880;18.036;2023-06-10T09:45:02;98704.63;;;21.03;65.23
72428;BME280;60419;48.880;18.036;2023-06-10T09:47:51;98700.97;;;21.62;64.07
72428;BME280;60419;48.880;18.036;2023-06-10T09:50:42;98692.50;;;21.12;64.39
72428;BME280;60419;48.880;18.036;2023-06-10T09:53:33;98702.06;;;21.39;64.05
72428;BME280;60419;48.880;18.036;2023-06-10T09:56:19;98700.13;;;21.43;62.78
72428;BME280;60419;48.880;18.036;2023-06-10T09:59:04;98687.06;;;20.56;65.10
72428;BME280;60419;48.880;18.036;2023-06-10T10:01:55;98690.44;;;20.91;64.11
72428;BME280;60419;48.880;18.036;2023-06-10T10:04:40;98699.44;;;20.88;65.04
72428;BME280;60419;48.880;18.036;2023-06-10T10:07:26;98695.16;;;20.94;65.45
72428;BME280;60419;48.880;18.036;2023-06-10T10:10:13;98686.75;;;21.35;62.69
72428;BME280;60419;48.880;18.036;2023-06-10T10:12:59;98683.25;;;21.38;62.68
72428;BME280;60419;48.880;18.036;2023-06-10T10:15:46;98670.00;;;21.76;60.96
72428;BME280;60419;48.880;18.036;2023-06-10T10:18:32;98666.25;;;21.18;63.79
72428;BME280;60419;48.880;18.036;2023-06-10T10:21:22;98671.69;;;22.12;61.00
72428;BME280;60419;48.880;18.036;2023-06-10T10:24:18;98674.97;;;21.34;62.72
72428;BME280;60419;48.880;18.036;2023-06-10T10:27:11;98681.38;;;21.67;62.83
72428;BME280;60419;48.880;18.036;2023-06-10T10:29:59;98676.78;;;22.00;61.57
72428;BME280;60419;48.880;18.036;2023-06-10T10:32:56;98676.00;;;22.21;60.50
72428;BME280;60419;48.880;18.036;2023-06-10T10:35:42;98676.25;;;21.65;61.55
72428;BME280;60419;48.880;18.036;2023-06-10T10:38:28;98666.13;;;21.84;61.81
72428;BME280;60419;48.880;18.036;2023-06-10T10:41:14;98678.19;;;21.50;62.25
72428;BME280;60419;48.880;18.036;2023-06-10T10:44:01;98666.13;;;22.02;61.43
72428;BME280;60419;48.880;18.036;2023-06-10T10:46:50;98661.31;;;21.52;63.24
72428;BME280;60419;48.880;18.036;2023-06-10T10:49:37;98659.47;;;22.06;61.29
72428;BME280;60419;48.880;18.036;2023-06-10T10:52:22;98656.72;;;22.06;60.13
72428;BME280;60419;48.880;18.036;2023-06-10T10:55:12;98642.03;;;21.41;62.61
72428;BME280;60419;48.880;18.036;2023-06-10T10:58:07;98658.63;;;21.74;62.37
72428;BME280;60419;48.880;18.036;2023-06-10T11:00:52;98642.94;;;21.96;60.55
72428;BME280;60419;48.880;18.036;2023-06-10T11:03:45;98645.31;;;22.65;59.10
72428;BME280;60419;48.880;18.036;2023-06-10T11:06:34;98647.31;;;22.40;59.81
72428;BME280;60419;48.880;18.036;2023-06-10T11:09:27;98650.00;;;22.86;57.08
72428;BME280;60419;48.880;18.036;2023-06-10T11:12:22;98645.69;;;22.64;57.67
72428;BME280;60419;48.880;18.036;2023-06-10T11:15:08;98635.47;;;21.85;58.63
72428;BME280;60419;48.880;18.036;2023-06-10T11:18:13;98635.50;;;22.25;57.58
72428;BME280;60419;48.880;18.036;2023-06-10T11:21:00;98638.88;;;23.18;55.56
72428;BME280;60419;48.880;18.036;2023-06-10T11:23:46;98627.88;;;23.11;57.06
72428;BME280;60419;48.880;18.036;2023-06-10T11:26:32;98612.22;;;23.71;56.51
72428;BME280;60419;48.880;18.036;2023-06-10T11:29:19;98622.88;;;22.81;56.62
72428;BME280;60419;48.880;18.036;2023-06-10T11:32:06;98622.13;;;22.73;57.75
72428;BME280;60419;48.880;18.036;2023-06-10T11:34:52;98623.31;;;22.54;56.88
72428;BME280;60419;48.880;18.036;2023-06-10T11:37:38;98614.69;;;22.42;55.86
72428;BME280;60419;48.880;18.036;2023-06-10T11:40:23;98629.63;;;22.15;57.51
72428;BME280;60419;48.880;18.036;2023-06-10T11:43:09;98617.41;;;22.49;56.20
72428;BME280;60419;48.880;18.036;2023-06-10T11:45:54;98622.09;;;21.77;56.35
72428;BME280;60419;48.880;18.036;2023-06-10T11:48:55;98618.97;;;21.85;56.87
72428;BME280;60419;48.880;18.036;2023-06-10T11:51:41;98610.38;;;22.33;55.38
72428;BME280;60419;48.880;18.036;2023-06-10T11:54:34;98595.44;;;23.44;54.11
72428;BME280;60419;48.880;18.036;2023-06-10T11:57:19;98610.81;;;23.41;54.09
72428;BME280;60419;48.880;18.036;2023-06-10T12:00:06;98599.91;;;23.90;52.73
72428;BME280;60419;48.880;18.036;2023-06-10T12:02:57;98576.16;;;23.48;53.04
72428;BME280;60419;48.880;18.036;2023-06-10T12:05:59;98596.22;;;23.52;53.63
72428;BME280;60419;48.880;18.036;2023-06-10T12:08:45;98605.94;;;23.71;54.14
72428;BME280;60419;48.880;18.036;2023-06-10T12:11:31;98615.59;;;23.34;54.31
72428;BME280;60419;48.880;18.036;2023-06-10T12:17:42;98600.81;;;23.73;54.00
72428;BME280;60419;48.880;18.036;2023-06-10T12:20:30;98609.47;;;24.27;52.79
72428;BME280;60419;48.880;18.036;2023-06-10T12:23:18;98603.59;;;22.81;55.65
72428;BME280;60419;48.880;18.036;2023-06-10T12:26:03;98604.16;;;23.39;54.51
72428;BME280;60419;48.880;18.036;2023-06-10T12:28:50;98568.69;;;22.28;57.62
72428;BME280;60419;48.880;18.036;2023-06-10T12:31:52;98597.31;;;22.80;57.10
72428;BME280;60419;48.880;18.036;2023-06-10T12:34:39;98593.16;;;23.35;56.67
72428;BME280;60419;48.880;18.036;2023-06-10T12:37:25;98597.41;;;22.02;58.75
72428;BME280;60419;48.880;18.036;2023-06-10T12:40:11;98587.16;;;22.34;58.06
72428;BME280;60419;48.880;18.036;2023-06-10T12:42:57;98587.19;;;22.09;58.88
72428;BME280;60419;48.880;18.036;2023-06-10T12:45:43;98625.41;;;21.05;60.75
72428;BME280;60419;48.880;18.036;2023-06-10T12:48:29;98638.59;;;20.23;63.66
72428;BME280;60419;48.880;18.036;2023-06-10T12:51:15;98635.94;;;19.18;69.16
72428;BME280;60419;48.880;18.036;2023-06-10T12:54:01;98649.69;;;19.22;69.93
72428;BME280;60419;48.880;18.036;2023-06-10T12:56:47;98654.91;;;19.04;70.91
72428;BME280;60419;48.880;18.036;2023-06-10T12:59:33;98650.56;;;18.99;70.54
72428;BME280;60419;48.880;18.036;2023-06-10T13:02:19;98661.50;;;18.99;71.02
72428;BME280;60419;48.880;18.036;2023-06-10T13:05:05;98663.69;;;19.50;70.62
72428;BME280;60419;48.880;18.036;2023-06-10T13:07:50;98673.72;;;20.07;70.39
72428;BME280;60419;48.880;18.036;2023-06-10T13:10:36;98671.84;;;19.77;70.01
72428;BME280;60419;48.880;18.036;2023-06-10T13:13:22;98670.09;;;19.62;71.75
72428;BME280;60419;48.880;18.036;2023-06-10T13:16:08;98664.00;;;19.42;74.16
72428;BME280;60419;48.880;18.036;2023-06-10T13:18:53;98664.69;;;19.35;75.89
72428;BME280;60419;48.880;18.036;2023-06-10T13:21:39;98673.72;;;19.05;79.17
72428;BME280;60419;48.880;18.036;2023-06-10T13:24:24;98663.38;;;19.22;77.45
72428;BME280;60419;48.880;18.036;2023-06-10T13:27:10;98636.53;;;19.35;77.25
72428;BME280;60419;48.880;18.036;2023-06-10T13:29:55;98663.28;;;19.48;77.24
72428;BME280;60419;48.880;18.036;2023-06-10T13:32:40;98669.28;;;19.58;74.92
72428;BME280;60419;48.880;18.036;2023-06-10T13:35:26;98668.28;;;19.39;75.88
72428;BME280;60419;48.880;18.036;2023-06-10T13:38:11;98673.06;;;18.85;77.22
72428;BME280;60419;48.880;18.036;2023-06-10T13:40:57;98661.66;;;19.10;78.37
72428;BME280;60419;48.880;18.036;2023-06-10T13:43:43;98668.31;;;19.76;74.80
72428;BME280;60419;48.880;18.036;2023-06-10T13:46:28;98667.59;;;19.16;77.84
72428;BME280;60419;48.880;18.036;2023-06-10T13:49:14;98664.34;;;19.37;76.60
72428;BME280;60419;48.880;18.036;2023-06-10T13:51:59;98663.34;;;19.18;78.63
72428;BME280;60419;48.880;18.036;2023-06-10T13:54:44;98651.22;;;19.90;76.25
72428;BME280;60419;48.880;18.036;2023-06-10T13:57:30;98656.09;;;20.08;75.56
72428;BME280;60419;48.880;18.036;2023-06-10T14:00:16;98661.28;;;20.20;73.90
72428;BME280;60419;48.880;18.036;2023-06-10T14:03:01;98654.25;;;20.23;72.45
72428;BME280;60419;48.880;18.036;2023-06-10T14:05:48;98655.38;;;20.14;72.41
72428;BME280;60419;48.880;18.036;2023-06-10T14:08:33;98663.28;;;20.23;72.19
72428;BME280;60419;48.880;18.036;2023-06-10T14:11:19;98660.38;;;20.09;73.15
72428;BME280;60419;48.880;18.036;2023-06-10T14:14:04;98658.91;;;20.18;73.95
72428;BME280;60419;48.880;18.036;2023-06-10T14:16:50;98655.97;;;19.93;74.77
72428;BME280;60419;48.880;18.036;2023-06-10T14:19:35;98657.75;;;20.19;74.18
72428;BME280;60419;48.880;18.036;2023-06-10T14:22:21;98653.25;;;20.38;72.57
72428;BME280;60419;48.880;18.036;2023-06-10T14:25:07;98654.19;;;20.12;73.27
72428;BME280;60419;48.880;18.036;2023-06-10T14:27:52;98649.03;;;20.51;72.30
72428;BME280;60419;48.880;18.036;2023-06-10T14:30:37;98636.19;;;20.18;73.14
72428;BME280;60419;48.880;18.036;2023-06-10T14:33:23;98638.66;;;19.86;73.33
72428;BME280;60419;48.880;18.036;2023-06-10T14:36:09;98638.22;;;20.80;71.49